sensor_id;sensor_type;location;lat;lon;timestamp;pressure;altitude;pressure_sealevel;temperature;humidity
39265;BME280;42646;51.910;7.724;2022-11-18T00:01:22;99049.28;;;6.23;100.00
39265;BME280;42646;51.910;7.724;2022-11-18T00:03:51;99058.47;;;6.19;100.00
39265;BME280;42646;51.910;7.724;2022-11-18T00:06:20;99059.75;;;6.14;100.00
39265;BME280;42646;51.910;7.724;2022-11-18T00:08:49;99056.72;;;6.09;100.00
39265;BME280;42646;51.910;7.724;2022-11-18T00:11:19;99065.94;;;6.05;100.00
39265;BME280;42646;51.910;7.724;2022-11-18T00:14:01;99069.84;;;6.01;100.00
39265;BME280;42646;51.910;7.724;2022-11-18T00:16:54;99072.09;;;5.96;100.00
39265;BME280;42646;51.910;7.724;2022-11-18T00:19:24;99079.44;;;5.93;100.00
39265;BME280;42646;51.910;7.724;2022-11-18T00:21:52;99078.06;;;5.88;100.00
39265;BME280;42646;51.910;7.724;2022-11-18T00:24:20;99075.88;;;5.84;100.00
39265;BME280;42646;51.910;7.724;2022-11-18T00:26:51;99077.13;;;5.80;100.00
39265;BME280;42646;51.910;7.724;2022-11-18T00:29:20;99083.53;;;5.77;100.00
39265;BME280;42646;51.910;7.724;2022-11-18T00:31:48;99085.63;;;5.74;100.00
39265;BME280;42646;51.910;7.724;2022-11-18T00:34:17;99079.84;;;5.70;100.00
39265;BME280;42646;51.910;7.724;2022-11-18T00:36:46;99078.31;;;5.68;100.00
39265;BME280;42646;51.910;7.724;2022-11-18T00:39:17;99081.38;;;5.63;100.00
39265;BME280;42646;51.910;7.724;2022-11-18T00:41:46;99092.22;;;5.60;100.00
39265;BME280;42646;51.910;7.724;2022-11-18T00:44:32;99097.09;;;5.55;100.00
39265;BME280;42646;51.910;7.724;2022-11-18T00:47:00;99097.53;;;5.50;100.00
39265;BME280;42646;51.910;7.724;2022-11-18T00:49:29;99103.25;;;5.46;100.00
39265;BME280;42646;51.910;7.724;2022-11-18T00:51:57;99109.63;;;5.43;100.00
39265;BME280;42646;51.910;7.724;2022-11-18T00:54:25;99106.59;;;5.38;100.00
39265;BME280;42646;51.910;7.724;2022-11-18T00:56:53;99110.38;;;5.35;100.00
39265;BME280;42646;51.910;7.724;2022-11-18T00:59:21;99106.91;;;5.35;100.00
39265;BME280;42646;51.910;7.724;2022-11-18T01:01:50;99104.53;;;5.32;100.00
39265;BME280;42646;51.910;7.724;2022-11-18T01:04:18;99107.31;;;5.30;100.00
39265;BME280;42646;51.910;7.724;2022-11-18T01:06:49;99107.59;;;5.27;100.00
39265;BME280;42646;51.910;7.724;2022-11-18T01:09:21;99111.19;;;5.26;100.00
39265;BME280;42646;51.910;7.724;2022-11-18T01:11:48;99112.19;;;5.25;100.00
39265;BME280;42646;51.910;7.724;2022-11-18T01:14:34;99114.28;;;5.22;100.00
39265;BME280;42646;51.910;7.724;2022-11-18T01:17:01;99110.13;;;5.19;100.00
39265;BME280;42646;51.910;7.724;2022-11-18T01:19:29;99116.53;;;5.17;100.00
39265;BME280;42646;51.910;7.724;2022-11-18T01:21:58;99115.97;;;5.13;100.00
39265;BME280;42646;51.910;7.724;2022-11-18T01:24:29;99125.66;;;5.13;100.00
39265;BME280;42646;51.910;7.724;2022-11-18T01:26:57;99129.56;;;5.08;100.00
39265;BME280;42646;51.910;7.724;2022-11-18T01:29:25;99127.91;;;5.07;100.00
39265;BME280;42646;51.910;7.724;2022-11-18T01:31:53;99130.69;;;5.06;100.00
39265;BME280;42646;51.910;7.724;2022-11-18T01:34:44;99131.50;;;5.06;100.00
39265;BME280;42646;51.910;7.724;2022-11-18T01:37:16;99131.66;;;5.05;100.00
39265;BME280;42646;51.910;7.724;2022-11-18T01:39:44;99132.47;;;5.05;100.00
39265;BME280;42646;51.910;7.724;2022-11-18T01:42:14;99128.03;;;5.06;100.00
39265;BME280;42646;51.910;7.724;2022-11-18T01:45:04;99135.94;;;5.06;100.00
39265;BME280;42646;51.910;7.724;2022-11-18T01:47:44;99136.78;;;5.06;100.00
39265;BME280;42646;51.910;7.724;2022-11-18T01:50:17;99140.25;;;5.07;100.00
39265;BME280;42646;51.910;7.724;2022-11-18T01:52:53;99139.25;;;5.08;100.00
39265;BME280;42646;51.910;7.724;2022-11-18T01:55:25;99139.25;;;5.08;100.00
39265;BME280;42646;51.910;7.724;2022-11-18T01:57:59;99140.09;;;5.08;100.00
39265;BME280;42646;51.910;7.724;2022-11-18T02:00:28;99144.53;;;5.08;100.00
39265;BME280;42646;51.910;7.724;2022-11-18T02:02:57;99138.59;;;5.06;100.00
39265;BME280;42646;51.910;7.724;2022-11-18T02:05:25;99144.69;;;5.06;100.00
39265;BME280;42646;51.910;7.724;2022-11-18T02:07:56;99143.84;;;5.06;100.00
39265;BME280;42646;51.910;7.724;2022-11-18T02:10:27;99148.97;;;5.07;100.00
39265;BME280;42646;51.910;7.724;2022-11-18T02:12:55;99148.00;;;5.08;100.00
39265;BME280;42646;51.910;7.724;2022-11-18T02:15:35;99154.09;;;5.09;100.00
39265;BME280;42646;51.910;7.724;2022-11-18T02:18:14;99151.47;;;5.09;100.00
39265;BME280;42646;51.910;7.724;2022-11-18T02:20:45;99159.38;;;5.09;100.00
39265;BME280;42646;51.910;7.724;2022-11-18T02:23:57;99155.06;;;5.08;100.00
39265;BME280;42646;51.910;7.724;2022-11-18T02:26:49;99157.72;;;5.08;100.00
39265;BME280;42646;51.910;7.724;2022-11-18T02:29:28;99162.84;;;5.09;100.00
39265;BME280;42646;51.910;7.724;2022-11-18T02:31:59;99169.81;;;5.11;100.00
39265;BME280;42646;51.910;7.724;2022-11-18T02:34:37;99168.81;;;5.12;100.00
39265;BME280;42646;51.910;7.724;2022-11-18T02:37:12;99166.88;;;5.14;100.00
39265;BME280;42646;51.910;7.724;2022-11-18T02:39:46;99173.78;;;5.15;100.00
39265;BME280;42646;51.910;7.724;2022-11-18T02:42:15;99167.44;;;5.17;100.00
39265;BME280;42646;51.910;7.724;2022-11-18T02:44:49;99163.97;;;5.17;100.00
39265;BME280;42646;51.910;7.724;2022-11-18T02:47:21;99174.38;;;5.18;100.00
39265;BME280;42646;51.910;7.724;2022-11-18T02:49:52;99178.66;;;5.19;100.00
39265;BME280;42646;51.910;7.724;2022-11-18T02:52:24;99177.00;;;5.18;100.00
39265;BME280;42646;51.910;7.724;2022-11-18T02:54:57;99175.03;;;5.20;100.00
39265;BME280;42646;51.910;7.724;2022-11-18T02:57:28;99175.88;;;5.21;100.00
39265;BME280;42646;51.910;7.724;2022-11-18T02:59:59;99177.41;;;5.23;100.00
39265;BME280;42646;51.910;7.724;2022-11-18T03:02:27;99171.00;;;5.26;100.00
39265;BME280;42646;51.910;7.724;2022-11-18T03:04:56;99183.94;;;5.29;100.00
39265;BME280;42646;51.910;7.724;2022-11-18T03:07:28;99181.97;;;5.31;100.00
39265;BME280;42646;51.910;7.724;2022-11-18T03:09:58;99190.56;;;5.33;100.00
39265;BME280;42646;51.910;7.724;2022-11-18T03:12:32;99194.88;;;5.34;100.00
39265;BME280;42646;51.910;7.724;2022-11-18T03:15:15;99196.41;;;5.36;100.00
39265;BME280;42646;51.910;7.724;2022-11-18T03:17:54;99197.09;;;5.39;100.00
39265;BME280;42646;51.910;7.724;2022-11-18T03:20:27;99205.56;;;5.42;100.00
39265;BME280;42646;51.910;7.724;2022-11-18T03:22:59;99206.94;;;5.46;100.00
39265;BME280;42646;51.910;7.724;2022-11-18T03:25:36;99209.28;;;5.49;100.00
39265;BME280;42646;51.910;7.724;2022-11-18T03:28:13;99220.41;;;5.53;100.00
39265;BME280;42646;51.910;7.724;2022-11-18T03:30:51;99218.28;;;5.56;100.00
39265;BME280;42646;51.910;7.724;2022-11-18T03:33:23;99215.53;;;5.58;100.00
39265;BME280;42646;51.910;7.724;2022-11-18T03:35:57;99229.25;;;5.61;100.00
39265;BME280;42646;51.910;7.724;2022-11-18T03:38:29;99225.50;;;5.64;100.00
39265;BME280;42646;51.910;7.724;2022-11-18T03:41:03;99234.09;;;5.66;100.00
39265;BME280;42646;51.910;7.724;2022-11-18T03:43:35;99239.09;;;5.69;100.00
39265;BME280;42646;51.910;7.724;2022-11-18T03:46:13;99231.06;;;5.71;100.00
39265;BME280;42646;51.910;7.724;2022-11-18T03:48:44;99236.03;;;5.74;100.00
39265;BME280;42646;51.910;7.724;2022-11-18T03:51:17;99235.91;;;5.75;100.00
39265;BME280;42646;51.910;7.724;2022-11-18T03:53:51;99237.56;;;5.76;100.00
39265;BME280;42646;51.910;7.724;2022-11-18T03:56:27;99233.94;;;5.77;100.00
39265;BME280;42646;51.910;7.724;2022-11-18T03:59:04;99246.84;;;5.80;100.00
39265;BME280;42646;51.910;7.724;2022-11-18T04:01:40;99237.13;;;5.81;100.00
39265;BME280;42646;51.910;7.724;2022-11-18T04:04:10;99244.09;;;5.82;100.00
39265;BME280;42646;51.910;7.724;2022-11-18T04:07:08;99243.94;;;5.83;100.00
39265;BME280;42646;51.910;7.724;2022-11-18T04:09:46;99248.91;;;5.86;100.00
39265;BME280;42646;51.910;7.724;2022-11-18T04:12:19;99252.94;;;5.90;100.00
39265;BME280;42646;51.910;7.724;2022-11-18T04:14:48;99256.28;;;5.93;100.00
39265;BME280;42646;51.910;7.724;2022-11-18T04:17:25;99254.22;;;5.96;100.00
39265;BME280;42646;51.910;7.724;2022-11-18T04:19:54;99263.50;;;6.00;100.00
39265;BME280;42646;51.910;7.724;2022-11-18T04:22:21;99260.56;;;6.03;100.00
39265;BME280;42646;51.910;7.724;2022-11-18T04:24:51;99261.97;;;6.07;100.00
39265;BME280;42646;51.910;7.724;2022-11-18T04:27:18;99265.97;;;6.11;100.00
39265;BME280;42646;51.910;7.724;2022-11-18T04:29:46;99261.22;;;6.15;100.00
39265;BME280;42646;51.910;7.724;2022-11-18T04:32:14;99264.44;;;6.19;100.00
39265;BME280;42646;51.910;7.724;2022-11-18T04:34:43;99270.22;;;6.22;100.00
39265;BME280;42646;51.910;7.724;2022-11-18T04:37:10;99264.69;;;6.25;100.00
39265;BME280;42646;51.910;7.724;2022-11-18T04:39:38;99267.88;;;6.29;100.00
39265;BME280;42646;51.910;7.724;2022-11-18T04:42:33;99268.38;;;6.32;100.00
39265;BME280;42646;51.910;7.724;2022-11-18T04:45:01;99269.94;;;6.35;100.00
39265;BME280;42646;51.910;7.724;2022-11-18T04:47:28;99267.97;;;6.37;100.00
39265;BME280;42646;51.910;7.724;2022-11-18T04:49:57;99271.16;;;6.40;100.00
39265;BME280;42646;51.910;7.724;2022-11-18T04:52:25;99283.22;;;6.43;100.00
39265;BME280;42646;51.910;7.724;2022-11-18T04:54:54;99275.97;;;6.45;100.00
39265;BME280;42646;51.910;7.724;2022-11-18T04:57:23;99281.16;;;6.47;100.00
39265;BME280;42646;51.910;7.724;2022-11-18T04:59:53;99279.19;;;6.49;100.00
39265;BME280;42646;51.910;7.724;2022-11-18T05:02:22;99285.97;;;6.51;100.00
39265;BME280;42646;51.910;7.724;2022-11-18T05:04:51;99290.13;;;6.54;100.00
39265;BME280;42646;51.910;7.724;2022-11-18T05:07:21;99298.91;;;6.54;100.00
39265;BME280;42646;51.910;7.724;2022-11-18T05:09:49;99308.22;;;6.58;100.00
39265;BME280;42646;51.910;7.724;2022-11-18T05:12:19;99305.41;;;6.60;100.00
39265;BME280;42646;51.910;7.724;2022-11-18T05:15:05;99312.34;;;6.61;100.00
39265;BME280;42646;51.910;7.724;2022-11-18T05:17:35;99306.09;;;6.62;100.00
39265;BME280;42646;51.910;7.724;2022-11-18T05:20:03;99304.28;;;6.62;100.00
39265;BME280;42646;51.910;7.724;2022-11-18T05:22:34;99312.75;;;6.66;100.00
39265;BME280;42646;51.910;7.724;2022-11-18T05:25:02;99320.53;;;6.67;100.00
39265;BME280;42646;51.910;7.724;2022-11-18T05:27:30;99315.91;;;6.69;100.00
39265;BME280;42646;51.910;7.724;2022-11-18T05:29:59;99321.91;;;6.72;100.00
39265;BME280;42646;51.910;7.724;2022-11-18T05:32:27;99329.69;;;6.73;100.00
39265;BME280;42646;51.910;7.724;2022-11-18T05:34:54;99329.53;;;6.75;100.00
39265;BME280;42646;51.910;7.724;2022-11-18T05:37:22;99326.75;;;6.76;100.00
39265;BME280;42646;51.910;7.724;2022-11-18T05:39:51;99325.06;;;6.75;100.00
39265;BME280;42646;51.910;7.724;2022-11-18T05:42:19;99336.47;;;6.76;100.00
39265;BME280;42646;51.910;7.724;2022-11-18T05:45:05;99330.34;;;6.75;100.00
39265;BME280;42646;51.910;7.724;2022-11-18T05:47:33;99338.44;;;6.74;100.00
39265;BME280;42646;51.910;7.724;2022-11-18T05:50:20;99341.91;;;6.74;100.00
39265;BME280;42646;51.910;7.724;2022-11-18T05:52:52;99342.75;;;6.75;100.00
39265;BME280;42646;51.910;7.724;2022-11-18T05:55:23;99344.56;;;6.74;100.00
39265;BME280;42646;51.910;7.724;2022-11-18T05:57:53;99355.13;;;6.74;100.00
39265;BME280;42646;51.910;7.724;2022-11-18T06:00:21;99355.94;;;6.75;100.00
39265;BME280;42646;51.910;7.724;2022-11-18T06:02:51;99360.25;;;6.76;100.00
39265;BME280;42646;51.910;7.724;2022-11-18T06:05:21;99361.13;;;6.76;100.00
39265;BME280;42646;51.910;7.724;2022-11-18T06:07:55;99361.94;;;6.77;100.00
39265;BME280;42646;51.910;7.724;2022-11-18T06:10:29;99362.78;;;6.77;100.00
39265;BME280;42646;51.910;7.724;2022-11-18T06:13:02;99369.88;;;6.77;100.00
39265;BME280;42646;51.910;7.724;2022-11-18T06:15:56;99377.81;;;6.77;100.00
39265;BME280;42646;51.910;7.724;2022-11-18T06:18:26;99385.72;;;6.77;100.00
39265;BME280;42646;51.910;7.724;2022-11-18T06:20:57;99388.38;;;6.77;100.00
39265;BME280;42646;51.910;7.724;2022-11-18T06:23:28;99397.13;;;6.77;100.00
39265;BME280;42646;51.910;7.724;2022-11-18T06:26:01;99399.78;;;6.77;100.00
39265;BME280;42646;51.910;7.724;2022-11-18T06:28:31;99401.44;;;6.78;100.00
39265;BME280;42646;51.910;7.724;2022-11-18T06:30:59;99405.91;;;6.78;100.00
39265;BME280;42646;51.910;7.724;2022-11-18T06:33:27;99411.19;;;6.78;100.00
39265;BME280;42646;51.910;7.724;2022-11-18T06:35:54;99412.16;;;6.77;100.00
39265;BME280;42646;51.910;7.724;2022-11-18T06:38:23;99414.09;;;6.75;100.00
39265;BME280;42646;51.910;7.724;2022-11-18T06:40:51;99421.19;;;6.74;100.00
39265;BME280;42646;51.910;7.724;2022-11-18T06:43:45;99424.00;;;6.73;100.00
39265;BME280;42646;51.910;7.724;2022-11-18T06:46:14;99429.28;;;6.73;100.00
39265;BME280;42646;51.910;7.724;2022-11-18T06:49:00;99424.97;;;6.72;100.00
39265;BME280;42646;51.910;7.724;2022-11-18T06:51:28;99434.72;;;6.71;100.00
39265;BME280;42646;51.910;7.724;2022-11-18T06:53:58;99434.72;;;6.71;100.00
39265;BME280;42646;51.910;7.724;2022-11-18T06:56:29;99445.13;;;6.73;100.00
39265;BME280;42646;51.910;7.724;2022-11-18T06:58:58;99443.31;;;6.73;100.00
39265;BME280;42646;51.910;7.724;2022-11-18T07:01:27;99439.69;;;6.74;100.00
39265;BME280;42646;51.910;7.724;2022-11-18T07:03:57;99448.47;;;6.75;100.00
39265;BME280;42646;51.910;7.724;2022-11-18T07:06:27;99454.47;;;6.77;100.00
39265;BME280;42646;51.910;7.724;2022-11-18T07:08:58;99463.22;;;6.77;100.00
39265;BME280;42646;51.910;7.724;2022-11-18T07:11:27;99461.25;;;6.79;100.00
39265;BME280;42646;51.910;7.724;2022-11-18T07:13:55;99457.63;;;6.80;100.00
39265;BME280;42646;51.910;7.724;2022-11-18T07:16:25;99470.41;;;6.85;100.00
39265;BME280;42646;51.910;7.724;2022-11-18T07:18:55;99466.78;;;6.86;100.00
39265;BME280;42646;51.910;7.724;2022-11-18T07:21:25;99479.03;;;6.87;100.00
39265;BME280;42646;51.910;7.724;2022-11-18T07:23:57;99480.56;;;6.89;100.00
39265;BME280;42646;51.910;7.724;2022-11-18T07:26:49;99484.03;;;6.90;100.00
39265;BME280;42646;51.910;7.724;2022-11-18T07:29:19;99491.56;;;6.94;100.00
39265;BME280;42646;51.910;7.724;2022-11-18T07:32:13;99491.56;;;6.94;100.00
39265;BME280;42646;51.910;7.724;2022-11-18T07:34:41;99494.03;;;6.96;100.00
39265;BME280;42646;51.910;7.724;2022-11-18T07:37:10;99496.53;;;6.97;100.00
39265;BME280;42646;51.910;7.724;2022-11-18T07:39:38;99502.50;;;7.00;100.00
39265;BME280;42646;51.910;7.724;2022-11-18T07:42:05;99505.03;;;7.01;100.00
39265;BME280;42646;51.910;7.724;2022-11-18T07:44:33;99506.69;;;7.02;100.00
39265;BME280;42646;51.910;7.724;2022-11-18T07:47:04;99509.19;;;7.04;100.00
39265;BME280;42646;51.910;7.724;2022-11-18T07:49:38;99509.88;;;7.06;100.00
39265;BME280;42646;51.910;7.724;2022-11-18T07:52:06;99510.72;;;7.06;100.00
39265;BME280;42646;51.910;7.724;2022-11-18T07:54:34;99516.84;;;7.07;100.00
39265;BME280;42646;51.910;7.724;2022-11-18T07:57:01;99520.16;;;7.09;100.00
39265;BME280;42646;51.910;7.724;2022-11-18T07:59:29;99518.34;;;7.09;100.00
39265;BME280;42646;51.910;7.724;2022-11-18T08:01:57;99524.31;;;7.11;100.00
39265;BME280;42646;51.910;7.724;2022-11-18T08:04:52;99523.38;;;7.12;100.00
39265;BME280;42646;51.910;7.724;2022-11-18T08:07:20;99524.03;;;7.14;100.00
39265;BME280;42646;51.910;7.724;2022-11-18T08:10:15;99531.84;;;7.16;100.00
39265;BME280;42646;51.910;7.724;2022-11-18T08:12:43;99533.50;;;7.17;100.00
39265;BME280;42646;51.910;7.724;2022-11-18T08:15:11;99531.56;;;7.19;100.00
39265;BME280;42646;51.910;7.724;2022-11-18T08:17:38;99538.34;;;7.21;100.00
39265;BME280;42646;51.910;7.724;2022-11-18T08:20:09;99539.19;;;7.22;100.00
39265;BME280;42646;51.910;7.724;2022-11-18T08:22:37;99544.19;;;7.25;100.00
39265;BME280;42646;51.910;7.724;2022-11-18T08:25:31;99550.19;;;7.27;100.00
39265;BME280;42646;51.910;7.724;2022-11-18T08:27:59;99551.84;;;7.28;100.00
39265;BME280;42646;51.910;7.724;2022-11-18T08:30:29;99554.34;;;7.30;100.00
39265;BME280;42646;51.910;7.724;2022-11-18T08:32:57;99557.53;;;7.33;100.00
39265;BME280;42646;51.910;7.724;2022-11-18T08:35:31;99561.72;;;7.36;100.00
39265;BME280;42646;51.910;7.724;2022-11-18T08:37:59;99564.22;;;7.37;100.00
39265;BME280;42646;51.910;7.724;2022-11-18T08:40:27;99561.41;;;7.39;100.00
39265;BME280;42646;51.910;7.724;2022-11-18T08:42:55;99561.25;;;7.40;100.00
39265;BME280;42646;51.910;7.724;2022-11-18T08:45:23;99562.94;;;7.41;100.00
39265;BME280;42646;51.910;7.724;2022-11-18T08:47:50;99561.97;;;7.42;100.00
39265;BME280;42646;51.910;7.724;2022-11-18T08:50:18;99569.75;;;7.44;100.00
39265;BME280;42646;51.910;7.724;2022-11-18T08:52:48;99578.38;;;7.46;100.00
39265;BME280;42646;51.910;7.724;2022-11-18T08:55:16;99571.13;;;7.48;100.00
39265;BME280;42646;51.910;7.724;2022-11-18T08:57:44;99571.81;;;7.50;100.00
39265;BME280;42646;51.910;7.724;2022-11-18T09:00:14;99564.56;;;7.52;100.00
39265;BME280;42646;51.910;7.724;2022-11-18T09:02:41;99560.97;;;7.53;100.00
39265;BME280;42646;51.910;7.724;2022-11-18T09:05:09;99575.69;;;7.56;100.00
39265;BME280;42646;51.910;7.724;2022-11-18T09:07:37;99570.25;;;7.57;100.00
39265;BME280;42646;51.910;7.724;2022-11-18T09:10:07;99577.09;;;7.60;100.00
39265;BME280;42646;51.910;7.724;2022-11-18T09:12:35;99585.69;;;7.62;100.00
39265;BME280;42646;51.910;7.724;2022-11-18T09:15:03;99578.75;;;7.61;100.00
39265;BME280;42646;51.910;7.724;2022-11-18T09:17:39;99586.53;;;7.62;100.00
39265;BME280;42646;51.910;7.724;2022-11-18T09:20:08;99589.84;;;7.64;100.00
39265;BME280;42646;51.910;7.724;2022-11-18T09:22:37;99601.16;;;7.66;100.00
39265;BME280;42646;51.910;7.724;2022-11-18T09:25:30;99592.91;;;7.69;100.00
39265;BME280;42646;51.910;7.724;2022-11-18T09:28:01;99592.78;;;7.71;100.00
39265;BME280;42646;51.910;7.724;2022-11-18T09:30:29;99590.81;;;7.73;100.00
39265;BME280;42646;51.910;7.724;2022-11-18T09:32:59;99594.13;;;7.75;100.00
39265;BME280;42646;51.910;7.724;2022-11-18T09:35:29;99597.34;;;7.79;100.00
39265;BME280;42646;51.910;7.724;2022-11-18T09:37:57;99599.00;;;7.80;100.00
39265;BME280;42646;51.910;7.724;2022-11-18T09:40:25;99601.38;;;7.83;100.00
39265;BME280;42646;51.910;7.724;2022-11-18T09:43:00;99608.31;;;7.84;100.00
39265;BME280;42646;51.910;7.724;2022-11-18T09:45:34;99606.34;;;7.86;100.00
39265;BME280;42646;51.910;7.724;2022-11-18T09:48:14;99613.47;;;7.85;100.00
39265;BME280;42646;51.910;7.724;2022-11-18T09:50:43;99614.16;;;7.87;100.00
39265;BME280;42646;51.910;7.724;2022-11-18T09:53:18;99614.84;;;7.89;100.00
39265;BME280;42646;51.910;7.724;2022-11-18T09:55:47;99613.72;;;7.92;100.00
39265;BME280;42646;51.910;7.724;2022-11-18T09:58:31;99619.56;;;7.95;100.00
39265;BME280;42646;51.910;7.724;2022-11-18T10:01:02;99621.22;;;7.96;100.00
39265;BME280;42646;51.910;7.724;2022-11-18T10:03:31;99629.00;;;7.98;100.00
39265;BME280;42646;51.910;7.724;2022-11-18T10:06:04;99631.50;;;7.99;100.00
39265;BME280;42646;51.910;7.724;2022-11-18T10:08:55;99637.34;;;8.03;100.00
39265;BME280;42646;51.910;7.724;2022-11-18T10:11:27;99639.84;;;8.04;100.00
39265;BME280;42646;51.910;7.724;2022-11-18T10:14:13;99642.34;;;8.06;100.00
39265;BME280;42646;51.910;7.724;2022-11-18T10:16:54;99646.53;;;8.09;100.00
39265;BME280;42646;51.910;7.724;2022-11-18T10:19:29;99646.53;;;8.09;100.00
39265;BME280;42646;51.910;7.724;2022-11-18T10:22:12;99653.50;;;8.10;100.00
39265;BME280;42646;51.910;7.724;2022-11-18T10:24:51;99655.16;;;8.11;100.00
39265;BME280;42646;51.910;7.724;2022-11-18T10:27:25;99661.16;;;8.13;100.00
39265;BME280;42646;51.910;7.724;2022-11-18T10:29:56;99659.34;;;8.13;100.00
39265;BME280;42646;51.910;7.724;2022-11-18T10:32:24;99661.84;;;8.15;100.00
39265;BME280;42646;51.910;7.724;2022-11-18T10:34:53;99665.31;;;8.15;100.00
39265;BME280;42646;51.910;7.724;2022-11-18T10:37:24;99669.63;;;8.16;100.00
39265;BME280;42646;51.910;7.724;2022-11-18T10:40:23;99674.78;;;8.18;100.00
39265;BME280;42646;51.910;7.724;2022-11-18T10:42:54;99683.59;;;8.18;100.00
39265;BME280;42646;51.910;7.724;2022-11-18T10:45:28;99674.50;;;8.21;100.00
39265;BME280;42646;51.910;7.724;2022-11-18T10:48:05;99678.81;;;8.22;100.00
39265;BME280;42646;51.910;7.724;2022-11-18T10:50:36;99675.03;;;8.24;100.00
39265;BME280;42646;51.910;7.724;2022-11-18T10:53:27;99679.19;;;8.27;100.00
39265;BME280;42646;51.910;7.724;2022-11-18T10:55:57;99677.69;;;8.24;100.00
39265;BME280;42646;51.910;7.724;2022-11-18T10:58:25;99682.84;;;8.26;100.00
39265;BME280;42646;51.910;7.724;2022-11-18T11:01:05;99682.69;;;8.27;100.00
39265;BME280;42646;51.910;7.724;2022-11-18T11:04:02;99686.84;;;8.30;100.00
39265;BME280;42646;51.910;7.724;2022-11-18T11:06:37;99682.41;;;8.30;100.00
39265;BME280;42646;51.910;7.724;2022-11-18T11:09:08;99680.44;;;8.33;100.00
39265;BME280;42646;51.910;7.724;2022-11-18T11:11:38;99684.59;;;8.35;100.00
39265;BME280;42646;51.910;7.724;2022-11-18T11:14:15;99677.50;;;8.36;100.00
39265;BME280;42646;51.910;7.724;2022-11-18T11:16:57;99682.53;;;8.39;100.00
39265;BME280;42646;51.910;7.724;2022-11-18T11:19:30;99676.22;;;8.40;100.00
39265;BME280;42646;51.910;7.724;2022-11-18T11:22:01;99684.03;;;8.41;100.00
39265;BME280;42646;51.910;7.724;2022-11-18T11:24:31;99689.03;;;8.44;100.00
39265;BME280;42646;51.910;7.724;2022-11-18T11:27:09;99688.72;;;8.47;100.00
39265;BME280;42646;51.910;7.724;2022-11-18T11:30:12;99689.28;;;8.51;100.00
39265;BME280;42646;51.910;7.724;2022-11-18T11:32:56;99694.31;;;8.54;100.00
39265;BME280;42646;51.910;7.724;2022-11-18T11:35:32;99693.31;;;8.55;100.00
39265;BME280;42646;51.910;7.724;2022-11-18T11:38:11;99689.69;;;8.56;100.00
39265;BME280;42646;51.910;7.724;2022-11-18T11:40:53;99689.34;;;8.59;100.00
39265;BME280;42646;51.910;7.724;2022-11-18T11:43:34;99694.53;;;8.61;100.00
39265;BME280;42646;51.910;7.724;2022-11-18T11:46:26;99700.50;;;8.63;100.00
39265;BME280;42646;51.910;7.724;2022-11-18T11:49:09;99696.88;;;8.64;100.00
39265;BME280;42646;51.910;7.724;2022-11-18T11:51:49;99704.66;;;8.65;100.00
39265;BME280;42646;51.910;7.724;2022-11-18T11:54:30;99702.00;;;8.65;100.00
39265;BME280;42646;51.910;7.724;2022-11-18T11:57:04;99700.91;;;8.68;100.00
39265;BME280;42646;51.910;7.724;2022-11-18T11:59:43;99704.94;;;8.72;100.00
39265;BME280;42646;51.910;7.724;2022-11-18T12:02:34;99705.75;;;8.72;100.00
39265;BME280;42646;51.910;7.724;2022-11-18T12:05:16;99702.13;;;8.73;100.00
39265;BME280;42646;51.910;7.724;2022-11-18T12:07:51;99710.75;;;8.75;100.00
39265;BME280;42646;51.910;7.724;2022-11-18T12:10:50;99713.13;;;8.78;100.00
39265;BME280;42646;51.910;7.724;2022-11-18T12:13:25;99712.81;;;8.81;100.00
39265;BME280;42646;51.910;7.724;2022-11-18T12:16:05;99716.28;;;8.82;100.00
39265;BME280;42646;51.910;7.724;2022-11-18T12:18:40;99713.50;;;8.83;100.00
39265;BME280;42646;51.910;7.724;2022-11-18T12:24:32;99719.47;;;8.86;100.00
39265;BME280;42646;51.910;7.724;2022-11-18T12:27:04;99718.81;;;8.83;100.00
39265;BME280;42646;51.910;7.724;2022-11-18T12:29:39;99718.81;;;8.83;100.00
39265;BME280;42646;51.910;7.724;2022-11-18T12:32:25;99726.78;;;8.83;100.00
39265;BME280;42646;51.910;7.724;2022-11-18T12:35:02;99726.38;;;8.78;100.00
39265;BME280;42646;51.910;7.724;2022-11-18T12:37:42;99727.81;;;8.73;100.00
39265;BME280;42646;51.910;7.724;2022-11-18T12:40:32;99729.91;;;8.69;100.00
39265;BME280;42646;51.910;7.724;2022-11-18T12:43:02;99739.28;;;8.64;100.00
39265;BME280;42646;51.910;7.724;2022-11-18T12:45:53;99737.63;;;8.63;100.00
39265;BME280;42646;51.910;7.724;2022-11-18T12:48:32;99742.25;;;8.61;100.00
39265;BME280;42646;51.910;7.724;2022-11-18T12:51:02;99745.03;;;8.59;100.00
39265;BME280;42646;51.910;7.724;2022-11-18T12:53:36;99741.84;;;8.55;100.00
39265;BME280;42646;51.910;7.724;2022-11-18T12:56:20;99749.25;;;8.52;100.00
39265;BME280;42646;51.910;7.724;2022-11-18T12:58:51;99744.41;;;8.47;100.00
39265;BME280;42646;51.910;7.724;2022-11-18T13:01:21;99742.88;;;8.45;100.00
39265;BME280;42646;51.910;7.724;2022-11-18T13:03:50;99751.00;;;8.43;100.00
39265;BME280;42646;51.910;7.724;2022-11-18T13:06:24;99754.47;;;8.44;100.00
39265;BME280;42646;51.910;7.724;2022-11-18T13:08:58;99763.53;;;8.41;100.00
39265;BME280;42646;51.910;7.724;2022-11-18T13:11:28;99771.63;;;8.40;100.00
39265;BME280;42646;51.910;7.724;2022-11-18T13:14:17;99765.66;;;8.38;100.00
39265;BME280;42646;51.910;7.724;2022-11-18T13:17:22;99772.91;;;8.36;100.00
39265;BME280;42646;51.910;7.724;2022-11-18T13:20:18;99769.69;;;8.32;100.00
39265;BME280;42646;51.910;7.724;2022-11-18T13:22:49;99774.28;;;8.30;100.00
39265;BME280;42646;51.910;7.724;2022-11-18T13:25:38;99779.59;;;8.30;100.00
39265;BME280;42646;51.910;7.724;2022-11-18T13:28:16;99775.16;;;8.30;100.00
39265;BME280;42646;51.910;7.724;2022-11-18T13:30:49;99777.66;;;8.32;100.00
39265;BME280;42646;51.910;7.724;2022-11-18T13:33:18;99774.84;;;8.34;100.00
39265;BME280;42646;51.910;7.724;2022-11-18T13:36:15;99784.88;;;8.30;100.00
39265;BME280;42646;51.910;7.724;2022-11-18T13:38:54;99777.09;;;8.28;100.00